Lexington RPC :: Glasgow

liberation: 2021-08-28  08:00     latitude: 37.020330     longitude: -85.935500 42 birds
# LOFT PRING MILES ARRIVAL SPEED ToWin
1 AU21-LKY-0230 92.292 2021-08-28 10:13:23.183 1217.773 00:00:00
2 AU21-KAST-2169 104.853 2021-08-28 10:55:31.091 1051.411 00:23:59
3 AU21-KAST-2111 104.853 2021-08-28 10:55:58.899 1048.642 00:24:26
4 AU21-LKY-0245 92.292 2021-08-28 10:37:21.391 1032.269 00:23:58
5 AU21-LKY-0250 92.292 2021-08-28 10:37:38.896 1030.359 00:24:16
6 AU21-LKY-0243 92.292 2021-08-28 10:47:30.775 969.682 00:34:08
7 AU21-LKY-0208 92.292 2021-08-28 10:47:54.090 967.438 00:34:31
8 AU21-KAST-2196 104.853 2021-08-28 11:23:02.943 908.853 00:51:31
9 AU21-KAST-2190 104.853 2021-08-28 11:26:28.572 893.767 00:54:56
10 AU21-KAST-2140 104.853 2021-08-28 11:51:23.850 797.510 01:19:51
11 AU21-KAST-2155 104.853 2021-08-28 11:53:10.413 791.435 01:21:38
12 AU21-KAST-2176 104.853 2021-08-28 12:06:14.864 749.415 01:34:42
13 AU21-KAST-2153 104.853 2021-08-28 12:09:26.565 739.816 01:37:54
14 AU21-KAST-2124 104.853 2021-08-28 12:09:29.447 739.673 01:37:57
15 AU21-KAST-2107 104.853 2021-08-28 12:14:36.289 724.816 01:43:04
16 AU21-KAST-2154 104.853 2021-08-28 12:15:10.719 723.186 01:43:38
17 AU21-KAST-2115 104.853 2021-08-28 12:15:14.671 723.000 01:43:42
18 AU21-LKY-0037 92.292 2021-08-28 11:54:33.233 692.525 01:41:10
19 AU21-KAST-2181 104.853 2021-08-28 13:10:30.884 594.309 02:38:58
20 AU21-LKY-0235 92.292 2021-08-28 13:53:57.706 458.904 03:40:35
21 AU21-LKY-0015 92.292 2021-08-28 13:54:05.231 458.741 03:40:42
22 AU21-LKY-0246 92.292 2021-08-28 13:54:06.934 458.704 03:40:44
23 AU21-LKY-0030 92.292 2021-08-28 13:54:09.434 458.650 03:40:46
24 AU21-LKY-0225 92.292 2021-08-28 13:54:13.685 458.559 03:40:50
25 AU21-LKY-0201 92.292 2021-08-28 13:54:18.309 458.459 03:40:55
26 AU21-KAST-2100 104.853 2021-08-28 17:16:38.025 331.532 06:45:06
27 AU21-LKY-0232 92.292 2021-08-28 19:21:37.167 238.306 09:08:14
28 AU21-LKY-0237 92.292 2021-08-29 08:58:09.298 179.753 12:50:16
29 AU21-LKY-0217 92.292 2021-08-29 09:22:53.574 174.963 13:15:00
30 AU21-LKY-0234 92.292 2021-08-29 09:33:05.459 173.062 13:25:12
31 AU21-LKY-0178 92.292 2021-08-29 11:18:42.242 155.558 15:10:49
32 AU21-LKY-0226 92.292 2021-08-29 13:53:38.635 135.459 17:45:45
33 AU21-LKY-0238 92.292 2021-08-29 14:22:22.304 132.289 18:14:29
34 AU21-LKY-0277 92.292 2021-08-29 15:12:51.013 127.066 19:04:58
35 AU21-LKY-0174 92.292 2021-08-29 19:14:37.665 106.856 23:06:44
36 AU21-LKY-0074 92.292 2021-08-29 20:20:52.296 102.394 24:12:59
AU21-KAST-2131 0 0000-00-00 00:00:00.000 0.000 00:00:00
AU21-KAST-2161 0 0000-00-00 00:00:00.000 0.000 00:00:00
AU21-KAST-2187 0 0000-00-00 00:00:00.000 0.000 00:00:00
AU21-LKY-0176 0 0000-00-00 00:00:00.000 0.000 00:00:00
AU21-LKY-0211 0 0000-00-00 00:00:00.000 0.000 00:00:00
AU21-LKY-0213 0 0000-00-00 00:00:00.000 0.000 00:00:00